createdAt,value
2022-11-20T00:01:23.499Z,54.60
2022-11-20T00:03:51.466Z,54.50
2022-11-20T00:06:19.967Z,54.40
2022-11-20T00:08:47.337Z,54.50
2022-11-20T00:11:25.599Z,54.40
2022-11-20T00:13:55.169Z,54.50
2022-11-20T00:16:24.668Z,54.40
2022-11-20T00:18:52.079Z,54.30
2022-11-20T00:21:24.030Z,54.40
2022-11-20T00:23:53.137Z,54.40
2022-11-20T00:26:23.034Z,54.50
2022-11-20T00:28:55.489Z,54.40
2022-11-20T00:31:22.018Z,54.40
2022-11-20T00:33:48.695Z,54.30
2022-11-20T00:36:18.186Z,54.50
2022-11-20T00:38:45.395Z,54.60
2022-11-20T00:41:15.217Z,54.70
2022-11-20T00:43:42.517Z,54.60
2022-11-20T00:46:15.809Z,54.60
2022-11-20T00:48:42.925Z,54.60
2022-11-20T00:51:09.762Z,54.60
2022-11-20T00:53:36.357Z,54.70
2022-11-20T00:56:08.301Z,54.60
2022-11-20T00:58:37.399Z,54.90
2022-11-20T01:01:13.056Z,54.80
2022-11-20T01:03:43.310Z,54.80
2022-11-20T01:06:24.656Z,54.70
2022-11-20T01:08:53.485Z,54.70
2022-11-20T01:11:26.472Z,54.80
2022-11-20T01:13:54.157Z,54.80
2022-11-20T01:16:26.974Z,54.70
2022-11-20T01:18:56.809Z,54.70
2022-11-20T01:21:32.271Z,54.80
2022-11-20T01:23:59.183Z,55.30
2022-11-20T01:26:28.974Z,54.50
2022-11-20T01:28:57.089Z,55.20
2022-11-20T01:31:26.041Z,55.40
2022-11-20T01:33:54.937Z,55.40
2022-11-20T01:36:23.218Z,55.30
2022-11-20T01:38:54.080Z,55.30
2022-11-20T01:41:41.010Z,55.20
2022-11-20T01:44:07.795Z,55.30
2022-11-20T01:46:37.659Z,55.10
2022-11-20T01:49:27.785Z,55.80
2022-11-20T01:51:59.812Z,56.60
2022-11-20T01:54:36.463Z,57.00
2022-11-20T01:57:04.693Z,56.70
2022-11-20T01:59:31.645Z,56.40
2022-11-20T02:01:58.445Z,56.20
2022-11-20T02:04:26.382Z,56.10
2022-11-20T02:07:04.848Z,56.10
2022-11-20T02:09:31.859Z,56.00
2022-11-20T02:11:59.710Z,55.80
2022-11-20T02:14:27.242Z,56.10
2022-11-20T02:16:56.006Z,56.20
2022-11-20T02:19:32.741Z,56.10
2022-11-20T02:22:19.474Z,56.10
2022-11-20T02:24:47.529Z,56.10
2022-11-20T02:27:15.897Z,56.00
2022-11-20T02:29:53.847Z,56.10
2022-11-20T02:32:32.716Z,56.30
2022-11-20T02:35:06.797Z,56.20
2022-11-20T02:37:37.152Z,56.20
2022-11-20T02:40:04.077Z,56.00
2022-11-20T02:42:30.716Z,55.90
2022-11-20T02:44:57.348Z,56.00
2022-11-20T02:47:23.954Z,56.00
2022-11-20T02:49:50.498Z,55.80
2022-11-20T02:52:17.114Z,56.00
2022-11-20T02:54:43.733Z,56.00
2022-11-20T02:57:10.366Z,56.00
2022-11-20T02:59:36.965Z,55.90
2022-11-20T03:02:03.597Z,55.80
2022-11-20T03:04:30.269Z,55.90
2022-11-20T03:06:57.069Z,56.00
2022-11-20T03:09:24.033Z,55.80
2022-11-20T03:11:50.733Z,55.90
2022-11-20T03:14:17.446Z,55.90
2022-11-20T03:16:44.092Z,55.90
2022-11-20T03:19:11.837Z,55.90
2022-11-20T03:21:38.481Z,56.00
2022-11-20T03:24:05.465Z,56.30
2022-11-20T03:26:32.268Z,56.30
2022-11-20T03:29:00.868Z,56.20
2022-11-20T03:31:30.410Z,56.50
2022-11-20T03:33:58.145Z,56.70
2022-11-20T03:36:24.938Z,56.50
2022-11-20T03:38:51.524Z,56.50
2022-11-20T03:41:21.156Z,56.50
2022-11-20T03:43:52.060Z,56.40
2022-11-20T03:46:19.013Z,56.30
2022-11-20T03:48:51.127Z,56.20
2022-11-20T03:51:21.788Z,56.30
2022-11-20T03:53:49.695Z,56.10
2022-11-20T03:56:18.994Z,56.80
2022-11-20T03:58:45.883Z,57.20
2022-11-20T04:01:21.087Z,57.60
2022-11-20T04:03:48.443Z,56.70
2022-11-20T04:06:26.793Z,56.60
2022-11-20T04:08:56.538Z,56.70
2022-11-20T04:11:28.903Z,56.50
2022-11-20T04:14:02.452Z,56.50
2022-11-20T04:16:35.230Z,56.50
2022-11-20T04:19:04.450Z,56.50
2022-11-20T04:21:31.167Z,56.50
2022-11-20T04:23:58.590Z,56.50
2022-11-20T04:26:27.219Z,56.50
2022-11-20T04:28:53.812Z,56.50
2022-11-20T04:31:27.256Z,56.50
2022-11-20T04:33:54.230Z,56.40
2022-11-20T04:36:25.892Z,56.40
2022-11-20T04:38:57.963Z,56.50
2022-11-20T04:41:27.360Z,56.50
2022-11-20T04:44:00.145Z,56.40
2022-11-20T04:46:28.606Z,56.50
2022-11-20T04:48:55.737Z,56.50
2022-11-20T04:51:22.621Z,56.40
2022-11-20T04:53:49.461Z,56.50
2022-11-20T04:56:16.759Z,56.30
2022-11-20T04:58:43.995Z,56.10
2022-11-20T05:01:14.528Z,56.20
2022-11-20T05:03:42.663Z,56.10
2022-11-20T05:06:11.301Z,56.00
2022-11-20T05:08:38.556Z,56.20
2022-11-20T05:11:08.213Z,56.30
2022-11-20T05:13:35.193Z,56.30
2022-11-20T05:16:04.395Z,56.40
2022-11-20T05:18:31.282Z,56.30
2022-11-20T05:20:58.726Z,56.40
2022-11-20T05:23:25.989Z,56.20
2022-11-20T05:25:58.821Z,56.30
2022-11-20T05:28:27.232Z,56.30
2022-11-20T05:30:54.009Z,56.20
2022-11-20T05:33:20.998Z,56.20
2022-11-20T05:35:48.958Z,56.20
2022-11-20T05:38:15.899Z,56.20
2022-11-20T05:40:42.453Z,56.30
2022-11-20T05:43:08.998Z,56.20
2022-11-20T05:45:36.043Z,56.20
2022-11-20T05:48:02.708Z,56.00
2022-11-20T05:50:29.349Z,56.30
2022-11-20T05:52:55.989Z,56.40
2022-11-20T05:55:22.678Z,56.30
2022-11-20T05:57:49.267Z,56.30
2022-11-20T06:00:16.322Z,56.40
2022-11-20T06:02:42.904Z,56.20
2022-11-20T06:05:09.705Z,56.60
2022-11-20T06:07:36.457Z,56.80
2022-11-20T06:10:03.515Z,56.60
2022-11-20T06:12:33.439Z,56.60
2022-11-20T06:15:00.835Z,56.50
2022-11-20T06:17:27.725Z,56.40
2022-11-20T06:19:54.331Z,56.40
2022-11-20T06:22:20.945Z,56.60
2022-11-20T06:24:47.657Z,56.90
2022-11-20T06:27:14.212Z,56.80
2022-11-20T06:29:40.788Z,56.80
2022-11-20T06:32:07.392Z,56.70
2022-11-20T06:34:33.981Z,56.60
2022-11-20T06:37:00.549Z,56.60
2022-11-20T06:39:27.144Z,56.70
2022-11-20T06:41:58.524Z,56.70
2022-11-20T06:44:25.808Z,56.70
2022-11-20T06:46:52.459Z,56.70
2022-11-20T06:49:19.286Z,56.70
2022-11-20T06:51:46.199Z,56.80
2022-11-20T06:54:13.974Z,56.90
2022-11-20T06:56:40.715Z,56.80
2022-11-20T06:59:08.219Z,56.60
2022-11-20T07:01:35.880Z,56.70
2022-11-20T07:04:03.000Z,56.80
2022-11-20T07:06:29.842Z,56.70
2022-11-20T07:08:56.482Z,57.30
2022-11-20T07:11:23.424Z,56.70
2022-11-20T07:13:50.457Z,56.60
2022-11-20T07:16:17.292Z,56.50
2022-11-20T07:18:49.928Z,56.70
2022-11-20T07:21:17.289Z,56.80
2022-11-20T07:23:43.926Z,56.70
2022-11-20T07:26:11.678Z,56.50
2022-11-20T07:28:39.090Z,56.50
2022-11-20T07:31:07.519Z,56.50
2022-11-20T07:33:34.140Z,56.60
2022-11-20T07:36:01.184Z,56.60
2022-11-20T07:38:27.866Z,56.50
2022-11-20T07:40:56.602Z,56.60
2022-11-20T07:43:23.201Z,56.60
2022-11-20T07:45:49.853Z,56.50
2022-11-20T07:48:16.508Z,56.60
2022-11-20T07:50:43.096Z,56.90
2022-11-20T07:53:09.653Z,56.70
2022-11-20T07:55:36.231Z,56.60
2022-11-20T07:58:02.795Z,56.90
2022-11-20T08:00:29.514Z,56.70
2022-11-20T08:02:56.145Z,56.70
2022-11-20T08:05:23.417Z,57.00
2022-11-20T08:07:50.245Z,56.90
2022-11-20T08:10:17.374Z,56.70
2022-11-20T08:13:12.329Z,56.80
2022-11-20T08:15:40.357Z,56.80
2022-11-20T08:18:31.835Z,56.90
2022-11-20T08:21:02.266Z,57.00
2022-11-20T08:23:28.850Z,57.00
2022-11-20T08:25:55.557Z,57.00
2022-11-20T08:28:22.712Z,57.10
2022-11-20T08:30:50.824Z,57.20
2022-11-20T08:33:18.364Z,57.30
2022-11-20T08:35:45.127Z,57.40
2022-11-20T08:38:11.689Z,57.40
2022-11-20T08:40:38.226Z,57.60
2022-11-20T08:43:05.238Z,57.60
2022-11-20T08:45:34.553Z,57.60
2022-11-20T08:48:02.872Z,57.80
2022-11-20T08:50:29.509Z,57.70
2022-11-20T08:52:56.140Z,58.00
2022-11-20T08:55:22.800Z,58.00
2022-11-20T08:57:50.976Z,58.00
2022-11-20T09:00:17.993Z,58.00
2022-11-20T09:02:44.625Z,57.90
2022-11-20T09:05:11.233Z,58.20
2022-11-20T09:07:37.894Z,58.30
2022-11-20T09:10:23.167Z,58.30
2022-11-20T09:12:51.574Z,58.20
2022-11-20T09:15:19.077Z,58.10
2022-11-20T09:18:07.606Z,58.20
2022-11-20T09:20:34.293Z,58.40
2022-11-20T09:23:00.920Z,58.50
2022-11-20T09:25:27.857Z,58.50
2022-11-20T09:28:00.691Z,58.60
2022-11-20T09:30:28.250Z,58.60
2022-11-20T09:32:55.110Z,58.60
2022-11-20T09:35:21.826Z,58.70
2022-11-20T09:37:48.407Z,58.70
2022-11-20T09:40:29.176Z,58.60
2022-11-20T09:43:09.768Z,58.70
2022-11-20T09:45:57.706Z,58.80
2022-11-20T09:49:08.526Z,58.70
2022-11-20T09:51:59.102Z,58.80
2022-11-20T09:54:34.324Z,58.70
2022-11-20T09:57:04.621Z,58.90
2022-11-20T09:59:41.314Z,59.00
2022-11-20T10:02:40.233Z,59.00
2022-11-20T10:05:46.553Z,59.10
2022-11-20T10:08:25.014Z,59.00
2022-11-20T10:11:01.606Z,59.00
2022-11-20T10:13:56.205Z,59.00
2022-11-20T10:16:41.579Z,58.90
2022-11-20T10:19:35.427Z,59.10
2022-11-20T10:22:34.257Z,59.10
2022-11-20T10:25:17.164Z,59.30
2022-11-20T10:28:02.354Z,59.20
2022-11-20T10:30:31.156Z,59.30
2022-11-20T10:33:07.192Z,59.30
2022-11-20T10:36:07.794Z,59.50
2022-11-20T10:38:57.690Z,59.40
2022-11-20T10:41:33.109Z,59.30
2022-11-20T10:44:45.908Z,59.30
2022-11-20T10:47:18.191Z,59.30
2022-11-20T10:49:47.622Z,59.30
2022-11-20T10:52:37.367Z,59.50
2022-11-20T10:55:19.621Z,59.70
2022-11-20T10:57:56.142Z,59.90
2022-11-20T11:00:22.786Z,59.90
2022-11-20T11:02:54.759Z,60.00
2022-11-20T11:05:26.758Z,60.00
2022-11-20T11:07:56.705Z,60.00
2022-11-20T11:10:42.321Z,60.00
2022-11-20T11:13:21.276Z,60.10
2022-11-20T11:15:47.985Z,60.10
2022-11-20T11:18:25.109Z,60.10
2022-11-20T11:20:52.578Z,60.10
2022-11-20T11:23:42.305Z,60.10
2022-11-20T11:26:29.727Z,60.10
2022-11-20T11:28:57.525Z,60.20
2022-11-20T11:31:25.913Z,60.00
2022-11-20T11:33:52.681Z,60.10
2022-11-20T11:36:23.036Z,60.10
2022-11-20T11:38:53.385Z,60.20
2022-11-20T11:41:32.629Z,60.20
2022-11-20T11:44:22.961Z,60.20
2022-11-20T11:46:57.288Z,60.20
2022-11-20T11:49:25.144Z,60.20
2022-11-20T11:52:18.757Z,60.20
2022-11-20T11:54:48.539Z,60.30
2022-11-20T11:57:24.254Z,60.20
2022-11-20T12:00:02.885Z,60.20
2022-11-20T12:02:50.391Z,60.30
2022-11-20T12:05:31.036Z,60.40
2022-11-20T12:08:12.210Z,60.40
2022-11-20T12:10:58.642Z,60.50
2022-11-20T12:13:34.331Z,60.70
2022-11-20T12:16:02.587Z,60.50
2022-11-20T12:18:30.630Z,60.70
2022-11-20T12:21:00.143Z,60.70
2022-11-20T12:23:27.141Z,60.70
2022-11-20T12:25:57.953Z,60.70
2022-11-20T12:28:53.637Z,60.70
2022-11-20T12:31:35.233Z,60.90
2022-11-20T12:35:00.274Z,61.00
2022-11-20T12:38:09.113Z,61.50
2022-11-20T12:41:13.923Z,60.90
2022-11-20T12:44:41.559Z,60.90
2022-11-20T12:47:36.096Z,60.90
2022-11-20T12:50:25.602Z,60.90
2022-11-20T12:53:05.549Z,61.00
2022-11-20T12:56:01.177Z,61.00
2022-11-20T12:58:36.578Z,61.00
2022-11-20T13:01:43.325Z,61.00
2022-11-20T13:04:25.174Z,61.10
2022-11-20T13:06:52.187Z,61.20
2022-11-20T13:09:24.406Z,61.20
2022-11-20T13:12:14.500Z,61.30
2022-11-20T13:14:53.054Z,61.30
2022-11-20T13:18:01.891Z,61.20
2022-11-20T13:20:30.149Z,61.30
2022-11-20T13:23:00.680Z,61.40
2022-11-20T13:25:37.026Z,61.30
2022-11-20T13:28:12.762Z,61.40
2022-11-20T13:30:51.581Z,61.60
2022-11-20T13:33:30.914Z,61.70
2022-11-20T13:36:20.645Z,61.60
2022-11-20T13:38:52.359Z,61.60
2022-11-20T13:41:58.237Z,61.70
2022-11-20T13:44:47.752Z,61.70
2022-11-20T13:47:28.963Z,61.70
2022-11-20T13:49:58.526Z,61.60
2022-11-20T13:52:56.802Z,61.80
2022-11-20T13:55:35.715Z,61.90
2022-11-20T13:58:16.202Z,61.90
2022-11-20T14:00:57.991Z,61.90
2022-11-20T14:03:51.266Z,61.70
2022-11-20T14:06:20.343Z,61.80
2022-11-20T14:08:51.594Z,61.80
2022-11-20T14:11:19.687Z,62.00
2022-11-20T14:13:58.367Z,61.90
2022-11-20T14:16:27.697Z,61.90
2022-11-20T14:18:55.410Z,61.90
2022-11-20T14:21:30.473Z,62.10
2022-11-20T14:24:07.453Z,62.20
2022-11-20T14:26:34.854Z,62.20
2022-11-20T14:29:01.626Z,62.30
2022-11-20T14:31:29.453Z,62.20
2022-11-20T14:33:56.498Z,62.30
2022-11-20T14:36:26.127Z,62.70
2022-11-20T14:38:53.810Z,62.20
2022-11-20T14:41:23.146Z,62.10
2022-11-20T14:43:58.851Z,62.30
2022-11-20T14:46:26.000Z,62.40
2022-11-20T14:48:56.287Z,62.40
2022-11-20T14:51:37.621Z,62.50
2022-11-20T14:54:27.006Z,62.50
2022-11-20T14:56:58.280Z,62.50
2022-11-20T14:59:26.775Z,62.50
2022-11-20T15:02:03.967Z,62.50
2022-11-20T15:04:31.385Z,62.70
2022-11-20T15:07:00.596Z,62.60
2022-11-20T15:09:27.794Z,62.80
2022-11-20T15:12:03.046Z,62.80
2022-11-20T15:14:31.946Z,62.80
2022-11-20T15:16:59.846Z,62.90
2022-11-20T15:19:27.777Z,62.80
2022-11-20T15:21:54.406Z,63.00
2022-11-20T15:24:21.733Z,62.90
2022-11-20T15:26:48.704Z,63.10
2022-11-20T15:29:20.198Z,63.10
2022-11-20T15:31:47.023Z,63.10
2022-11-20T15:34:16.162Z,63.00
2022-11-20T15:36:43.600Z,63.10
2022-11-20T15:39:10.473Z,63.20
2022-11-20T15:41:37.681Z,63.00
2022-11-20T15:44:05.374Z,63.20
2022-11-20T15:46:38.318Z,63.30
2022-11-20T15:49:06.122Z,63.20
2022-11-20T15:51:36.096Z,63.00
2022-11-20T15:54:14.589Z,63.20
2022-11-20T15:56:41.278Z,63.30
2022-11-20T15:59:08.122Z,63.30
2022-11-20T16:01:35.014Z,63.40
2022-11-20T16:04:02.145Z,63.50
2022-11-20T16:06:28.729Z,63.50
2022-11-20T16:08:55.355Z,63.70
2022-11-20T16:11:22.062Z,63.70
2022-11-20T16:14:07.577Z,63.70
2022-11-20T16:16:37.079Z,63.70
2022-11-20T16:19:04.321Z,63.70
2022-11-20T16:21:31.990Z,63.70
2022-11-20T16:23:59.977Z,63.70
2022-11-20T16:26:26.718Z,63.80
2022-11-20T16:28:53.445Z,63.70
2022-11-20T16:31:21.119Z,63.80
2022-11-20T16:33:52.070Z,63.80
2022-11-20T16:36:19.990Z,64.50
2022-11-20T16:38:47.342Z,63.90
2022-11-20T16:41:16.733Z,64.00
2022-11-20T16:43:49.612Z,63.90
2022-11-20T16:46:17.786Z,63.90
2022-11-20T16:48:44.363Z,64.00
2022-11-20T16:51:12.707Z,64.10
2022-11-20T16:53:40.564Z,64.10
2022-11-20T16:56:28.868Z,64.10
2022-11-20T16:58:57.734Z,64.00
2022-11-20T17:01:25.847Z,64.30
2022-11-20T17:04:02.764Z,64.20
2022-11-20T17:06:31.920Z,64.20
2022-11-20T17:08:59.334Z,64.30
2022-11-20T17:11:27.104Z,64.40
2022-11-20T17:13:56.155Z,64.60
2022-11-20T17:16:24.738Z,64.70
2022-11-20T17:18:51.839Z,64.60
2022-11-20T17:21:19.288Z,64.60
2022-11-20T17:23:46.751Z,64.50
2022-11-20T17:26:17.742Z,64.60
2022-11-20T17:29:01.893Z,64.50
2022-11-20T17:31:30.595Z,64.60
2022-11-20T17:33:59.552Z,64.60
2022-11-20T17:36:26.887Z,64.60
2022-11-20T17:38:53.501Z,64.60
2022-11-20T17:41:22.263Z,64.60
2022-11-20T17:43:49.689Z,64.60
2022-11-20T17:46:19.290Z,64.70
2022-11-20T17:48:46.956Z,64.70
2022-11-20T17:51:16.447Z,64.70
2022-11-20T17:53:45.471Z,64.70
2022-11-20T17:56:30.893Z,64.70
2022-11-20T17:58:57.665Z,64.70
2022-11-20T18:01:24.884Z,64.70
2022-11-20T18:03:51.901Z,64.70
2022-11-20T18:06:24.333Z,64.80
2022-11-20T18:08:51.158Z,64.90
2022-11-20T18:11:23.151Z,64.70
2022-11-20T18:14:12.412Z,64.70
2022-11-20T18:16:45.894Z,64.70
2022-11-20T18:19:14.845Z,64.70
2022-11-20T18:21:41.865Z,64.70
2022-11-20T18:24:09.163Z,64.70
2022-11-20T18:26:40.040Z,64.80
2022-11-20T18:29:10.876Z,64.70
2022-11-20T18:31:37.558Z,64.80
2022-11-20T18:34:05.113Z,64.80
2022-11-20T18:36:32.593Z,64.80
2022-11-20T18:39:01.137Z,64.70
2022-11-20T18:41:48.470Z,64.90
2022-11-20T18:44:40.389Z,65.00
2022-11-20T18:47:14.133Z,64.90
2022-11-20T18:49:52.355Z,65.00
2022-11-20T18:52:33.996Z,65.00
2022-11-20T18:55:02.390Z,64.90
2022-11-20T18:57:30.101Z,65.00
2022-11-20T19:00:06.521Z,64.90
2022-11-20T19:02:40.892Z,64.80
2022-11-20T19:05:09.685Z,64.90
2022-11-20T19:07:36.341Z,64.90
2022-11-20T19:10:04.160Z,64.90
2022-11-20T19:12:31.120Z,65.00
2022-11-20T19:14:58.072Z,65.00
2022-11-20T19:17:24.670Z,65.00
2022-11-20T19:19:52.045Z,65.00
2022-11-20T19:22:18.640Z,65.00
2022-11-20T19:24:45.858Z,64.90
2022-11-20T19:27:12.490Z,65.00
2022-11-20T19:29:39.641Z,65.00
2022-11-20T19:32:06.301Z,65.10
2022-11-20T19:34:33.246Z,65.00
2022-11-20T19:37:00.670Z,64.90
2022-11-20T19:39:27.390Z,65.00
2022-11-20T19:41:54.170Z,65.00
2022-11-20T19:44:20.912Z,65.00
2022-11-20T19:46:47.594Z,65.00
2022-11-20T19:49:14.845Z,65.00
2022-11-20T19:51:46.816Z,65.00
2022-11-20T19:54:13.917Z,65.00
2022-11-20T19:56:40.767Z,65.00
2022-11-20T19:59:07.421Z,65.00
2022-11-20T20:01:35.177Z,65.00
2022-11-20T20:04:03.468Z,65.00
2022-11-20T20:06:31.270Z,65.10
2022-11-20T20:09:00.816Z,65.10
2022-11-20T20:11:28.829Z,65.10
2022-11-20T20:13:56.325Z,65.10
2022-11-20T20:16:25.212Z,65.20
2022-11-20T20:18:56.794Z,65.20
2022-11-20T20:21:23.722Z,65.10
2022-11-20T20:23:53.397Z,65.10
2022-11-20T20:26:20.325Z,65.10
2022-11-20T20:28:46.960Z,65.20
2022-11-20T20:31:15.916Z,65.20
2022-11-20T20:33:43.239Z,65.30
2022-11-20T20:36:12.254Z,65.20
2022-11-20T20:38:39.043Z,65.20
2022-11-20T20:41:05.980Z,65.20
2022-11-20T20:43:52.633Z,65.20
2022-11-20T20:46:19.630Z,65.10
2022-11-20T20:48:49.063Z,65.20
2022-11-20T20:51:19.781Z,65.30
2022-11-20T20:53:46.413Z,65.20
2022-11-20T20:56:13.218Z,65.20
2022-11-20T20:58:41.048Z,65.40
2022-11-20T21:01:13.537Z,65.40
2022-11-20T21:03:40.355Z,65.30
2022-11-20T21:06:09.733Z,65.30
2022-11-20T21:08:40.134Z,65.30
2022-11-20T21:11:12.741Z,65.30
2022-11-20T21:13:41.031Z,65.30
2022-11-20T21:16:07.817Z,65.40
2022-11-20T21:18:34.865Z,65.40
2022-11-20T21:21:24.209Z,65.30
2022-11-20T21:23:53.205Z,65.30
2022-11-20T21:26:20.317Z,65.20
2022-11-20T21:28:46.890Z,65.30
2022-11-20T21:31:15.343Z,65.40
2022-11-20T21:33:44.004Z,65.50
2022-11-20T21:36:13.012Z,65.60
2022-11-20T21:38:39.754Z,65.50
2022-11-20T21:41:08.302Z,65.50
2022-11-20T21:43:35.377Z,65.60
2022-11-20T21:46:04.437Z,65.50
2022-11-20T21:48:31.971Z,66.10
2022-11-20T21:51:07.183Z,65.50
2022-11-20T21:53:34.363Z,65.40
2022-11-20T21:56:04.093Z,65.40
2022-11-20T21:58:31.005Z,65.50
2022-11-20T22:00:59.110Z,65.50
2022-11-20T22:03:25.810Z,65.50
2022-11-20T22:05:56.798Z,65.40
2022-11-20T22:08:26.988Z,65.50
2022-11-20T22:10:58.764Z,65.50
2022-11-20T22:13:44.815Z,65.70
2022-11-20T22:16:12.288Z,65.60
2022-11-20T22:18:46.506Z,65.50
2022-11-20T22:21:14.541Z,65.50
2022-11-20T22:23:41.297Z,65.40
2022-11-20T22:26:10.029Z,65.40
2022-11-20T22:28:37.461Z,65.40
2022-11-20T22:31:05.944Z,65.30
2022-11-20T22:33:33.454Z,65.40
2022-11-20T22:36:01.714Z,65.50
2022-11-20T22:38:29.746Z,65.50
2022-11-20T22:41:14.422Z,65.40
2022-11-20T22:43:42.419Z,65.40
2022-11-20T22:46:13.661Z,65.30
2022-11-20T22:48:42.392Z,65.50
2022-11-20T22:51:10.316Z,65.50
2022-11-20T22:53:37.298Z,65.50
2022-11-20T22:56:06.671Z,65.50
2022-11-20T22:58:33.810Z,65.50
2022-11-20T23:01:21.820Z,65.50
2022-11-20T23:03:54.342Z,65.50
2022-11-20T23:06:22.015Z,65.50
2022-11-20T23:08:49.961Z,65.50
2022-11-20T23:11:27.924Z,65.60
2022-11-20T23:13:58.082Z,65.70
2022-11-20T23:16:26.653Z,65.60
2022-11-20T23:18:54.864Z,65.60
2022-11-20T23:21:21.755Z,65.60
2022-11-20T23:23:50.204Z,65.60
2022-11-20T23:26:18.225Z,65.60
2022-11-20T23:28:45.096Z,65.70
2022-11-20T23:31:13.522Z,65.70
2022-11-20T23:33:42.046Z,65.70
2022-11-20T23:36:09.518Z,65.60
2022-11-20T23:38:36.670Z,65.60
2022-11-20T23:41:03.464Z,65.60
2022-11-20T23:43:30.200Z,65.60
2022-11-20T23:45:58.583Z,65.70
2022-11-20T23:48:27.513Z,65.70
2022-11-20T23:50:54.357Z,65.70
2022-11-20T23:53:22.043Z,65.90
2022-11-20T23:55:54.382Z,65.70
2022-11-20T23:58:23.053Z,65.70
